Weather at Tessaoua Airport

Public forecast

Using degrees Celsius for public forecast. Weather courtesy of forecast.io.

Closest aviation weather report (METAR) to Tessaoua Airport

Report is more than 6 hours old.

Closest report is Maradi Airport, 54.3 nm (100.6 km) WSW.

2022/11/26 18:00 (retrieved 9 hours ago)

DRRM 261800Z 00000KT 5000 DU NSC 26/02 Q1011

Closest aviation forecast (TAF) to Tessaoua Airport

Forecast is more than 6 hours old.

Closest forecast is Mallam Aminu International Airport, 106.8 nm (197.8 km) SSE.

2022/11/26 18:27 (retrieved 9 hours ago)

TAF TAF DNKN 261700Z 2618/2724 VRB02KT NSC TEMPO 2706/2712 5000 HZ BECMG 2708/2710 07008KT